sensor_id;sensor_type;location;lat;lon;timestamp;P1;durP1;ratioP1;P2;durP2;ratioP2
67185;SDS011;54116;53.518;49.398;2023-05-16T00:00:58;12.32;;;4.28;;
67185;SDS011;54116;53.518;49.398;2023-05-16T00:03:25;11.70;;;4.78;;
67185;SDS011;54116;53.518;49.398;2023-05-16T00:05:52;12.30;;;4.50;;
67185;SDS011;54116;53.518;49.398;2023-05-16T00:08:18;11.15;;;4.93;;
67185;SDS011;54116;53.518;49.398;2023-05-16T00:10:44;14.30;;;5.13;;
67185;SDS011;54116;53.518;49.398;2023-05-16T00:13:10;12.73;;;4.93;;
67185;SDS011;54116;53.518;49.398;2023-05-16T00:15:38;11.57;;;4.95;;
67185;SDS011;54116;53.518;49.398;2023-05-16T00:18:04;16.27;;;5.13;;
67185;SDS011;54116;53.518;49.398;2023-05-16T00:20:30;13.30;;;5.25;;
67185;SDS011;54116;53.518;49.398;2023-05-16T00:22:56;10.82;;;4.85;;
67185;SDS011;54116;53.518;49.398;2023-05-16T00:25:30;12.93;;;4.97;;
67185;SDS011;54116;53.518;49.398;2023-05-16T00:27:56;10.93;;;4.63;;
67185;SDS011;54116;53.518;49.398;2023-05-16T00:30:22;12.57;;;4.75;;
67185;SDS011;54116;53.518;49.398;2023-05-16T00:32:48;12.13;;;5.72;;
67185;SDS011;54116;53.518;49.398;2023-05-16T00:35:14;11.43;;;5.25;;
67185;SDS011;54116;53.518;49.398;2023-05-16T00:37:40;10.25;;;4.70;;
67185;SDS011;54116;53.518;49.398;2023-05-16T00:40:07;13.48;;;5.13;;
67185;SDS011;54116;53.518;49.398;2023-05-16T00:42:33;14.00;;;4.88;;
67185;SDS011;54116;53.518;49.398;2023-05-16T00:44:59;12.05;;;6.35;;
67185;SDS011;54116;53.518;49.398;2023-05-16T00:47:25;12.77;;;5.28;;
67185;SDS011;54116;53.518;49.398;2023-05-16T00:49:51;16.02;;;5.70;;
67185;SDS011;54116;53.518;49.398;2023-05-16T00:52:17;11.60;;;5.25;;
67185;SDS011;54116;53.518;49.398;2023-05-16T00:54:43;9.45;;;5.15;;
67185;SDS011;54116;53.518;49.398;2023-05-16T00:57:09;11.13;;;5.15;;
67185;SDS011;54116;53.518;49.398;2023-05-16T00:59:36;11.90;;;5.13;;
67185;SDS011;54116;53.518;49.398;2023-05-16T01:02:02;11.85;;;5.18;;
67185;SDS011;54116;53.518;49.398;2023-05-16T01:04:28;11.05;;;5.00;;
67185;SDS011;54116;53.518;49.398;2023-05-16T01:06:55;11.50;;;5.13;;
67185;SDS011;54116;53.518;49.398;2023-05-16T01:09:22;10.88;;;4.93;;
67185;SDS011;54116;53.518;49.398;2023-05-16T01:14:47;13.10;;;5.32;;
67185;SDS011;54116;53.518;49.398;2023-05-16T01:23:03;11.65;;;5.43;;
67185;SDS011;54116;53.518;49.398;2023-05-16T01:26:08;14.43;;;5.40;;
67185;SDS011;54116;53.518;49.398;2023-05-16T01:28:34;10.98;;;5.10;;
67185;SDS011;54116;53.518;49.398;2023-05-16T01:31:01;16.20;;;5.88;;
67185;SDS011;54116;53.518;49.398;2023-05-16T01:33:27;13.30;;;5.55;;
67185;SDS011;54116;53.518;49.398;2023-05-16T01:38:43;15.50;;;5.15;;
67185;SDS011;54116;53.518;49.398;2023-05-16T01:44:08;12.95;;;6.03;;
67185;SDS011;54116;53.518;49.398;2023-05-16T01:46:47;11.25;;;4.78;;
67185;SDS011;54116;53.518;49.398;2023-05-16T01:51:50;12.50;;;4.93;;
67185;SDS011;54116;53.518;49.398;2023-05-16T01:54:20;10.00;;;4.95;;
67185;SDS011;54116;53.518;49.398;2023-05-16T01:56:51;12.32;;;5.32;;
67185;SDS011;54116;53.518;49.398;2023-05-16T01:59:19;12.48;;;5.03;;
67185;SDS011;54116;53.518;49.398;2023-05-16T02:01:46;11.23;;;5.18;;
67185;SDS011;54116;53.518;49.398;2023-05-16T02:04:13;11.05;;;4.90;;
67185;SDS011;54116;53.518;49.398;2023-05-16T02:06:40;11.20;;;5.40;;
67185;SDS011;54116;53.518;49.398;2023-05-16T02:09:07;12.77;;;5.60;;
67185;SDS011;54116;53.518;49.398;2023-05-16T02:11:33;10.13;;;5.65;;
67185;SDS011;54116;53.518;49.398;2023-05-16T02:13:59;9.88;;;5.20;;
67185;SDS011;54116;53.518;49.398;2023-05-16T02:16:36;10.73;;;4.93;;
67185;SDS011;54116;53.518;49.398;2023-05-16T02:19:03;10.77;;;4.90;;
67185;SDS011;54116;53.518;49.398;2023-05-16T02:21:29;14.02;;;5.57;;
67185;SDS011;54116;53.518;49.398;2023-05-16T02:23:55;12.38;;;5.32;;
67185;SDS011;54116;53.518;49.398;2023-05-16T02:26:26;11.30;;;5.35;;
67185;SDS011;54116;53.518;49.398;2023-05-16T02:28:58;11.77;;;5.10;;
67185;SDS011;54116;53.518;49.398;2023-05-16T02:31:29;12.75;;;5.90;;
67185;SDS011;54116;53.518;49.398;2023-05-16T02:34:02;12.93;;;5.68;;
67185;SDS011;54116;53.518;49.398;2023-05-16T02:36:33;12.75;;;5.85;;
67185;SDS011;54116;53.518;49.398;2023-05-16T02:39:05;12.57;;;5.88;;
67185;SDS011;54116;53.518;49.398;2023-05-16T02:41:40;9.98;;;5.65;;
67185;SDS011;54116;53.518;49.398;2023-05-16T02:44:11;11.57;;;5.55;;
67185;SDS011;54116;53.518;49.398;2023-05-16T02:46:42;12.60;;;5.93;;
67185;SDS011;54116;53.518;49.398;2023-05-16T02:49:13;10.77;;;5.70;;
67185;SDS011;54116;53.518;49.398;2023-05-16T02:51:45;17.45;;;5.95;;
67185;SDS011;54116;53.518;49.398;2023-05-16T02:54:16;13.38;;;5.97;;
67185;SDS011;54116;53.518;49.398;2023-05-16T02:56:48;18.63;;;6.22;;
67185;SDS011;54116;53.518;49.398;2023-05-16T02:59:19;15.70;;;5.78;;
67185;SDS011;54116;53.518;49.398;2023-05-16T03:01:50;14.30;;;6.10;;
67185;SDS011;54116;53.518;49.398;2023-05-16T03:04:22;13.07;;;5.50;;
67185;SDS011;54116;53.518;49.398;2023-05-16T03:06:53;13.23;;;5.72;;
67185;SDS011;54116;53.518;49.398;2023-05-16T03:09:24;11.70;;;5.47;;
67185;SDS011;54116;53.518;49.398;2023-05-16T03:11:56;13.07;;;6.00;;
67185;SDS011;54116;53.518;49.398;2023-05-16T03:14:29;13.82;;;5.55;;
67185;SDS011;54116;53.518;49.398;2023-05-16T03:17:00;13.07;;;5.97;;
67185;SDS011;54116;53.518;49.398;2023-05-16T03:19:31;13.07;;;6.00;;
67185;SDS011;54116;53.518;49.398;2023-05-16T03:22:03;13.35;;;6.80;;
67185;SDS011;54116;53.518;49.398;2023-05-16T03:24:34;14.15;;;6.07;;
67185;SDS011;54116;53.518;49.398;2023-05-16T03:27:05;13.20;;;6.10;;
67185;SDS011;54116;53.518;49.398;2023-05-16T03:29:36;12.95;;;5.82;;
67185;SDS011;54116;53.518;49.398;2023-05-16T03:32:10;14.27;;;5.68;;
67185;SDS011;54116;53.518;49.398;2023-05-16T03:34:41;16.42;;;6.53;;
67185;SDS011;54116;53.518;49.398;2023-05-16T03:37:12;14.10;;;6.95;;
67185;SDS011;54116;53.518;49.398;2023-05-16T03:39:45;14.57;;;6.35;;
67185;SDS011;54116;53.518;49.398;2023-05-16T03:42:16;14.43;;;6.32;;
67185;SDS011;54116;53.518;49.398;2023-05-16T03:44:48;14.07;;;6.50;;
67185;SDS011;54116;53.518;49.398;2023-05-16T03:47:20;15.18;;;5.65;;
67185;SDS011;54116;53.518;49.398;2023-05-16T03:49:51;14.18;;;5.78;;
67185;SDS011;54116;53.518;49.398;2023-05-16T03:52:22;11.55;;;5.97;;
67185;SDS011;54116;53.518;49.398;2023-05-16T03:54:54;13.98;;;6.45;;
67185;SDS011;54116;53.518;49.398;2023-05-16T03:57:25;16.23;;;6.57;;
67185;SDS011;54116;53.518;49.398;2023-05-16T03:59:56;13.05;;;6.47;;
67185;SDS011;54116;53.518;49.398;2023-05-16T04:02:28;13.65;;;6.30;;
67185;SDS011;54116;53.518;49.398;2023-05-16T04:04:59;20.85;;;7.22;;
67185;SDS011;54116;53.518;49.398;2023-05-16T04:07:30;17.55;;;6.90;;
67185;SDS011;54116;53.518;49.398;2023-05-16T04:10:02;15.93;;;6.68;;
67185;SDS011;54116;53.518;49.398;2023-05-16T04:12:34;14.07;;;6.85;;
67185;SDS011;54116;53.518;49.398;2023-05-16T04:15:06;15.55;;;6.72;;
67185;SDS011;54116;53.518;49.398;2023-05-16T04:17:37;15.35;;;7.32;;
67185;SDS011;54116;53.518;49.398;2023-05-16T04:22:41;19.40;;;7.22;;
67185;SDS011;54116;53.518;49.398;2023-05-16T04:25:12;22.48;;;7.10;;
67185;SDS011;54116;53.518;49.398;2023-05-16T04:27:44;16.52;;;6.80;;
67185;SDS011;54116;53.518;49.398;2023-05-16T04:30:15;18.25;;;6.57;;
67185;SDS011;54116;53.518;49.398;2023-05-16T04:32:47;15.73;;;7.13;;
67185;SDS011;54116;53.518;49.398;2023-05-16T04:35:18;16.60;;;7.30;;
67185;SDS011;54116;53.518;49.398;2023-05-16T04:37:49;22.40;;;8.10;;
67185;SDS011;54116;53.518;49.398;2023-05-16T04:40:21;23.08;;;7.50;;
67185;SDS011;54116;53.518;49.398;2023-05-16T04:42:54;16.67;;;7.20;;
67185;SDS011;54116;53.518;49.398;2023-05-16T04:45:25;15.82;;;8.00;;
67185;SDS011;54116;53.518;49.398;2023-05-16T04:47:59;15.50;;;8.25;;
67185;SDS011;54116;53.518;49.398;2023-05-16T04:50:31;22.95;;;8.82;;
67185;SDS011;54116;53.518;49.398;2023-05-16T04:53:02;23.90;;;9.73;;
67185;SDS011;54116;53.518;49.398;2023-05-16T04:55:33;28.83;;;10.45;;
67185;SDS011;54116;53.518;49.398;2023-05-16T04:58:05;25.73;;;11.63;;
67185;SDS011;54116;53.518;49.398;2023-05-16T05:00:37;25.05;;;11.38;;
67185;SDS011;54116;53.518;49.398;2023-05-16T05:03:09;25.88;;;12.18;;
67185;SDS011;54116;53.518;49.398;2023-05-16T05:05:40;28.45;;;12.30;;
67185;SDS011;54116;53.518;49.398;2023-05-16T05:08:12;29.73;;;12.82;;
67185;SDS011;54116;53.518;49.398;2023-05-16T05:13:14;24.52;;;10.90;;
67185;SDS011;54116;53.518;49.398;2023-05-16T05:15:46;22.25;;;10.23;;
67185;SDS011;54116;53.518;49.398;2023-05-16T05:18:17;14.13;;;9.05;;
67185;SDS011;54116;53.518;49.398;2023-05-16T05:20:49;17.85;;;8.85;;
67185;SDS011;54116;53.518;49.398;2023-05-16T05:23:22;17.58;;;8.63;;
67185;SDS011;54116;53.518;49.398;2023-05-16T05:25:54;15.35;;;7.75;;
67185;SDS011;54116;53.518;49.398;2023-05-16T05:28:25;15.43;;;7.68;;
67185;SDS011;54116;53.518;49.398;2023-05-16T05:30:56;16.52;;;9.20;;
67185;SDS011;54116;53.518;49.398;2023-05-16T05:33:28;16.05;;;8.95;;
67185;SDS011;54116;53.518;49.398;2023-05-16T05:36:00;12.85;;;8.27;;
67185;SDS011;54116;53.518;49.398;2023-05-16T05:38:31;16.02;;;9.07;;
67185;SDS011;54116;53.518;49.398;2023-05-16T05:41:04;17.95;;;9.88;;
67185;SDS011;54116;53.518;49.398;2023-05-16T05:43:46;18.50;;;8.98;;
67185;SDS011;54116;53.518;49.398;2023-05-16T05:46:17;15.63;;;9.05;;
67185;SDS011;54116;53.518;49.398;2023-05-16T05:48:48;14.43;;;8.52;;
67185;SDS011;54116;53.518;49.398;2023-05-16T05:51:20;16.45;;;8.35;;
67185;SDS011;54116;53.518;49.398;2023-05-16T05:53:51;14.68;;;8.60;;
67185;SDS011;54116;53.518;49.398;2023-05-16T05:56:23;16.23;;;8.90;;
67185;SDS011;54116;53.518;49.398;2023-05-16T05:58:55;16.52;;;9.35;;
67185;SDS011;54116;53.518;49.398;2023-05-16T06:01:26;15.70;;;9.25;;
67185;SDS011;54116;53.518;49.398;2023-05-16T06:03:58;13.68;;;8.38;;
67185;SDS011;54116;53.518;49.398;2023-05-16T06:06:29;14.70;;;8.98;;
67185;SDS011;54116;53.518;49.398;2023-05-16T06:09:01;16.50;;;9.63;;
67185;SDS011;54116;53.518;49.398;2023-05-16T06:11:32;14.95;;;9.25;;
67185;SDS011;54116;53.518;49.398;2023-05-16T06:14:04;15.75;;;9.80;;
67185;SDS011;54116;53.518;49.398;2023-05-16T06:16:35;17.55;;;9.13;;
67185;SDS011;54116;53.518;49.398;2023-05-16T06:19:06;17.38;;;9.75;;
67185;SDS011;54116;53.518;49.398;2023-05-16T06:21:38;14.23;;;9.73;;
67185;SDS011;54116;53.518;49.398;2023-05-16T06:24:09;15.68;;;10.07;;
67185;SDS011;54116;53.518;49.398;2023-05-16T06:26:42;56.60;;;11.98;;
67185;SDS011;54116;53.518;49.398;2023-05-16T06:29:15;14.35;;;9.35;;
67185;SDS011;54116;53.518;49.398;2023-05-16T06:31:47;18.35;;;10.23;;
67185;SDS011;54116;53.518;49.398;2023-05-16T06:34:18;14.80;;;9.48;;
67185;SDS011;54116;53.518;49.398;2023-05-16T06:36:53;18.10;;;10.23;;
67185;SDS011;54116;53.518;49.398;2023-05-16T06:39:25;16.73;;;9.63;;
67185;SDS011;54116;53.518;49.398;2023-05-16T06:41:56;18.73;;;11.10;;
67185;SDS011;54116;53.518;49.398;2023-05-16T06:44:28;17.15;;;10.75;;
67185;SDS011;54116;53.518;49.398;2023-05-16T06:49:30;17.25;;;10.35;;
67185;SDS011;54116;53.518;49.398;2023-05-16T06:52:02;18.23;;;10.60;;
67185;SDS011;54116;53.518;49.398;2023-05-16T06:57:04;28.90;;;11.13;;
67185;SDS011;54116;53.518;49.398;2023-05-16T06:59:38;19.90;;;12.02;;
67185;SDS011;54116;53.518;49.398;2023-05-16T07:02:09;18.95;;;11.45;;
67185;SDS011;54116;53.518;49.398;2023-05-16T07:07:12;17.65;;;10.82;;
67185;SDS011;54116;53.518;49.398;2023-05-16T07:09:43;19.33;;;11.13;;
67185;SDS011;54116;53.518;49.398;2023-05-16T07:12:14;20.42;;;12.10;;
67185;SDS011;54116;53.518;49.398;2023-05-16T07:14:46;23.40;;;12.50;;
67185;SDS011;54116;53.518;49.398;2023-05-16T07:17:17;19.30;;;12.45;;
67185;SDS011;54116;53.518;49.398;2023-05-16T07:19:48;20.73;;;10.20;;
67185;SDS011;54116;53.518;49.398;2023-05-16T07:22:20;19.67;;;10.25;;
67185;SDS011;54116;53.518;49.398;2023-05-16T07:24:51;21.00;;;12.93;;
67185;SDS011;54116;53.518;49.398;2023-05-16T07:27:26;29.02;;;13.10;;
67185;SDS011;54116;53.518;49.398;2023-05-16T07:29:58;20.33;;;11.23;;
67185;SDS011;54116;53.518;49.398;2023-05-16T07:32:29;23.23;;;13.50;;
67185;SDS011;54116;53.518;49.398;2023-05-16T07:35:00;19.65;;;12.02;;
67185;SDS011;54116;53.518;49.398;2023-05-16T07:37:32;23.73;;;13.63;;
67185;SDS011;54116;53.518;49.398;2023-05-16T07:40:03;24.10;;;14.65;;
67185;SDS011;54116;53.518;49.398;2023-05-16T07:42:35;22.08;;;13.32;;
67185;SDS011;54116;53.518;49.398;2023-05-16T07:45:07;22.60;;;13.32;;
67185;SDS011;54116;53.518;49.398;2023-05-16T07:47:38;22.85;;;13.32;;
67185;SDS011;54116;53.518;49.398;2023-05-16T07:52:41;24.40;;;12.88;;
67185;SDS011;54116;53.518;49.398;2023-05-16T07:55:12;32.45;;;13.90;;
67185;SDS011;54116;53.518;49.398;2023-05-16T07:57:43;19.80;;;11.13;;
67185;SDS011;54116;53.518;49.398;2023-05-16T08:00:15;18.92;;;10.90;;
67185;SDS011;54116;53.518;49.398;2023-05-16T08:02:47;19.73;;;11.48;;
67185;SDS011;54116;53.518;49.398;2023-05-16T08:05:18;23.30;;;12.82;;
67185;SDS011;54116;53.518;49.398;2023-05-16T08:07:50;16.63;;;10.50;;
67185;SDS011;54116;53.518;49.398;2023-05-16T08:10:21;16.45;;;10.30;;
67185;SDS011;54116;53.518;49.398;2023-05-16T08:16:01;19.63;;;10.85;;
67185;SDS011;54116;53.518;49.398;2023-05-16T08:18:32;20.88;;;10.98;;
67185;SDS011;54116;53.518;49.398;2023-05-16T08:21:04;21.88;;;10.23;;
67185;SDS011;54116;53.518;49.398;2023-05-16T08:23:35;17.73;;;9.82;;
67185;SDS011;54116;53.518;49.398;2023-05-16T08:28:38;20.95;;;10.93;;
67185;SDS011;54116;53.518;49.398;2023-05-16T08:31:09;21.65;;;11.88;;
67185;SDS011;54116;53.518;49.398;2023-05-16T08:33:41;24.38;;;11.50;;
67185;SDS011;54116;53.518;49.398;2023-05-16T08:36:12;28.55;;;13.45;;
67185;SDS011;54116;53.518;49.398;2023-05-16T08:38:48;24.08;;;12.75;;
67185;SDS011;54116;53.518;49.398;2023-05-16T08:44:10;27.33;;;14.95;;
67185;SDS011;54116;53.518;49.398;2023-05-16T08:46:50;27.17;;;14.70;;
67185;SDS011;54116;53.518;49.398;2023-05-16T08:49:22;27.23;;;14.40;;
67185;SDS011;54116;53.518;49.398;2023-05-16T08:51:57;25.02;;;12.82;;
67185;SDS011;54116;53.518;49.398;2023-05-16T08:54:31;29.17;;;14.77;;
67185;SDS011;54116;53.518;49.398;2023-05-16T08:57:04;25.67;;;14.27;;
67185;SDS011;54116;53.518;49.398;2023-05-16T08:59:36;24.88;;;13.82;;
67185;SDS011;54116;53.518;49.398;2023-05-16T09:02:26;25.70;;;13.52;;
67185;SDS011;54116;53.518;49.398;2023-05-16T09:04:58;25.40;;;14.18;;
67185;SDS011;54116;53.518;49.398;2023-05-16T09:10:20;28.30;;;14.93;;
67185;SDS011;54116;53.518;49.398;2023-05-16T09:13:09;28.48;;;14.88;;
67185;SDS011;54116;53.518;49.398;2023-05-16T09:15:41;27.98;;;14.57;;
67185;SDS011;54116;53.518;49.398;2023-05-16T09:18:12;28.92;;;15.98;;
67185;SDS011;54116;53.518;49.398;2023-05-16T09:21:03;26.55;;;15.40;;
67185;SDS011;54116;53.518;49.398;2023-05-16T09:23:36;28.73;;;16.75;;
67185;SDS011;54116;53.518;49.398;2023-05-16T09:26:07;27.30;;;17.17;;
67185;SDS011;54116;53.518;49.398;2023-05-16T09:28:39;29.63;;;17.17;;
67185;SDS011;54116;53.518;49.398;2023-05-16T09:31:20;27.75;;;17.10;;
67185;SDS011;54116;53.518;49.398;2023-05-16T09:33:57;29.02;;;17.83;;
67185;SDS011;54116;53.518;49.398;2023-05-16T09:39:44;31.38;;;18.48;;
67185;SDS011;54116;53.518;49.398;2023-05-16T09:42:20;33.08;;;17.95;;
67185;SDS011;54116;53.518;49.398;2023-05-16T09:44:53;32.28;;;18.00;;
67185;SDS011;54116;53.518;49.398;2023-05-16T09:47:26;28.58;;;17.27;;
67185;SDS011;54116;53.518;49.398;2023-05-16T09:52:30;33.08;;;18.85;;
67185;SDS011;54116;53.518;49.398;2023-05-16T09:55:01;31.85;;;19.05;;
67185;SDS011;54116;53.518;49.398;2023-05-16T09:57:36;31.80;;;17.88;;
67185;SDS011;54116;53.518;49.398;2023-05-16T10:00:09;32.30;;;19.67;;
67185;SDS011;54116;53.518;49.398;2023-05-16T10:02:41;30.77;;;18.42;;
67185;SDS011;54116;53.518;49.398;2023-05-16T10:05:13;30.23;;;18.58;;
67185;SDS011;54116;53.518;49.398;2023-05-16T10:07:46;28.88;;;16.85;;
67185;SDS011;54116;53.518;49.398;2023-05-16T10:10:18;26.55;;;15.15;;
67185;SDS011;54116;53.518;49.398;2023-05-16T10:12:50;18.95;;;10.70;;
67185;SDS011;54116;53.518;49.398;2023-05-16T10:15:22;24.45;;;11.43;;
67185;SDS011;54116;53.518;49.398;2023-05-16T10:20:26;21.23;;;10.68;;
67185;SDS011;54116;53.518;49.398;2023-05-16T10:22:58;21.98;;;11.40;;
67185;SDS011;54116;53.518;49.398;2023-05-16T10:25:31;21.25;;;10.85;;
67185;SDS011;54116;53.518;49.398;2023-05-16T10:28:07;16.30;;;9.10;;
67185;SDS011;54116;53.518;49.398;2023-05-16T10:30:40;14.32;;;9.05;;
67185;SDS011;54116;53.518;49.398;2023-05-16T10:33:17;17.70;;;8.80;;
67185;SDS011;54116;53.518;49.398;2023-05-16T10:38:23;16.08;;;8.60;;
67185;SDS011;54116;53.518;49.398;2023-05-16T10:40:56;18.48;;;10.48;;
67185;SDS011;54116;53.518;49.398;2023-05-16T10:43:28;20.15;;;10.40;;
67185;SDS011;54116;53.518;49.398;2023-05-16T10:46:04;17.33;;;9.90;;
67185;SDS011;54116;53.518;49.398;2023-05-16T10:48:36;17.63;;;11.45;;
67185;SDS011;54116;53.518;49.398;2023-05-16T10:53:53;22.67;;;12.82;;
67185;SDS011;54116;53.518;49.398;2023-05-16T10:56:25;22.35;;;12.35;;
67185;SDS011;54116;53.518;49.398;2023-05-16T10:58:58;19.38;;;11.93;;
67185;SDS011;54116;53.518;49.398;2023-05-16T11:01:33;20.42;;;11.82;;
67185;SDS011;54116;53.518;49.398;2023-05-16T11:04:09;17.25;;;10.38;;
67185;SDS011;54116;53.518;49.398;2023-05-16T11:14:39;14.18;;;8.63;;
67185;SDS011;54116;53.518;49.398;2023-05-16T11:17:18;14.95;;;8.80;;
67185;SDS011;54116;53.518;49.398;2023-05-16T11:19:54;15.32;;;9.00;;
67185;SDS011;54116;53.518;49.398;2023-05-16T11:22:28;18.30;;;10.77;;
67185;SDS011;54116;53.518;49.398;2023-05-16T11:25:04;15.20;;;8.48;;
67185;SDS011;54116;53.518;49.398;2023-05-16T11:30:14;15.40;;;9.80;;
67185;SDS011;54116;53.518;49.398;2023-05-16T11:32:51;19.48;;;11.45;;
67185;SDS011;54116;53.518;49.398;2023-05-16T11:35:22;21.33;;;11.93;;
67185;SDS011;54116;53.518;49.398;2023-05-16T11:37:53;21.52;;;11.70;;
67185;SDS011;54116;53.518;49.398;2023-05-16T11:40:27;21.40;;;11.98;;
67185;SDS011;54116;53.518;49.398;2023-05-16T11:43:18;18.90;;;11.15;;
67185;SDS011;54116;53.518;49.398;2023-05-16T11:45:53;21.17;;;12.68;;
67185;SDS011;54116;53.518;49.398;2023-05-16T11:48:25;21.02;;;12.13;;
67185;SDS011;54116;53.518;49.398;2023-05-16T11:50:56;21.48;;;12.52;;
67185;SDS011;54116;53.518;49.398;2023-05-16T11:55:59;21.23;;;13.50;;
67185;SDS011;54116;53.518;49.398;2023-05-16T11:58:31;22.95;;;13.43;;
67185;SDS011;54116;53.518;49.398;2023-05-16T12:01:03;21.77;;;13.82;;
67185;SDS011;54116;53.518;49.398;2023-05-16T12:03:35;25.42;;;14.02;;
67185;SDS011;54116;53.518;49.398;2023-05-16T12:06:08;24.35;;;13.80;;
67185;SDS011;54116;53.518;49.398;2023-05-16T12:08:48;24.83;;;14.13;;
67185;SDS011;54116;53.518;49.398;2023-05-16T12:11:21;23.33;;;14.23;;
67185;SDS011;54116;53.518;49.398;2023-05-16T12:13:53;23.63;;;13.88;;
67185;SDS011;54116;53.518;49.398;2023-05-16T12:18:56;21.08;;;12.82;;
67185;SDS011;54116;53.518;49.398;2023-05-16T12:23:59;23.10;;;13.18;;
67185;SDS011;54116;53.518;49.398;2023-05-16T12:26:31;21.95;;;12.98;;
67185;SDS011;54116;53.518;49.398;2023-05-16T12:29:03;21.52;;;13.13;;
67185;SDS011;54116;53.518;49.398;2023-05-16T12:31:35;21.02;;;13.63;;
67185;SDS011;54116;53.518;49.398;2023-05-16T12:34:15;21.33;;;13.93;;
67185;SDS011;54116;53.518;49.398;2023-05-16T12:36:51;22.23;;;12.80;;
67185;SDS011;54116;53.518;49.398;2023-05-16T12:39:41;23.75;;;13.60;;
67185;SDS011;54116;53.518;49.398;2023-05-16T12:44:44;21.35;;;13.43;;
67185;SDS011;54116;53.518;49.398;2023-05-16T12:47:16;23.02;;;13.52;;
67185;SDS011;54116;53.518;49.398;2023-05-16T12:50:10;24.88;;;13.35;;
67185;SDS011;54116;53.518;49.398;2023-05-16T12:52:50;22.98;;;14.05;;
67185;SDS011;54116;53.518;49.398;2023-05-16T12:55:23;24.23;;;13.85;;
67185;SDS011;54116;53.518;49.398;2023-05-16T12:57:54;24.05;;;13.98;;
67185;SDS011;54116;53.518;49.398;2023-05-16T13:00:45;30.38;;;15.65;;
67185;SDS011;54116;53.518;49.398;2023-05-16T13:03:16;23.23;;;12.35;;
67185;SDS011;54116;53.518;49.398;2023-05-16T13:05:47;19.88;;;11.52;;
67185;SDS011;54116;53.518;49.398;2023-05-16T13:11:27;21.70;;;12.15;;
67185;SDS011;54116;53.518;49.398;2023-05-16T13:13:59;22.92;;;11.52;;
67185;SDS011;54116;53.518;49.398;2023-05-16T13:16:48;19.25;;;11.68;;
67185;SDS011;54116;53.518;49.398;2023-05-16T13:19:38;24.48;;;13.68;;
67185;SDS011;54116;53.518;49.398;2023-05-16T13:24:59;26.85;;;12.93;;
67185;SDS011;54116;53.518;49.398;2023-05-16T13:27:31;21.52;;;11.93;;
67185;SDS011;54116;53.518;49.398;2023-05-16T13:30:04;15.02;;;8.98;;
67185;SDS011;54116;53.518;49.398;2023-05-16T13:32:54;18.98;;;9.23;;
67185;SDS011;54116;53.518;49.398;2023-05-16T13:35:26;16.70;;;8.50;;
67185;SDS011;54116;53.518;49.398;2023-05-16T13:40:48;13.70;;;7.88;;
67185;SDS011;54116;53.518;49.398;2023-05-16T13:43:19;14.57;;;7.80;;
67185;SDS011;54116;53.518;49.398;2023-05-16T13:45:51;13.70;;;7.40;;
67185;SDS011;54116;53.518;49.398;2023-05-16T13:48:22;13.95;;;8.02;;
67185;SDS011;54116;53.518;49.398;2023-05-16T13:50:54;13.55;;;7.80;;
67185;SDS011;54116;53.518;49.398;2023-05-16T13:53:27;15.02;;;7.90;;
67185;SDS011;54116;53.518;49.398;2023-05-16T13:55:59;15.18;;;7.70;;
67185;SDS011;54116;53.518;49.398;2023-05-16T13:58:31;14.73;;;8.57;;
67185;SDS011;54116;53.518;49.398;2023-05-16T14:01:02;14.18;;;8.15;;
67185;SDS011;54116;53.518;49.398;2023-05-16T14:03:34;13.35;;;8.18;;
67185;SDS011;54116;53.518;49.398;2023-05-16T14:06:23;16.50;;;8.13;;
67185;SDS011;54116;53.518;49.398;2023-05-16T14:09:13;15.48;;;7.95;;
67185;SDS011;54116;53.518;49.398;2023-05-16T14:11:45;17.25;;;8.52;;
67185;SDS011;54116;53.518;49.398;2023-05-16T14:14:16;16.75;;;8.73;;
67185;SDS011;54116;53.518;49.398;2023-05-16T14:16:47;12.95;;;7.95;;
67185;SDS011;54116;53.518;49.398;2023-05-16T14:19:37;19.13;;;8.90;;
67185;SDS011;54116;53.518;49.398;2023-05-16T14:22:08;16.40;;;8.43;;
67185;SDS011;54116;53.518;49.398;2023-05-16T14:25:17;18.02;;;9.13;;
67185;SDS011;54116;53.518;49.398;2023-05-16T14:27:53;18.05;;;9.90;;
67185;SDS011;54116;53.518;49.398;2023-05-16T14:30:43;17.20;;;9.43;;
67185;SDS011;54116;53.518;49.398;2023-05-16T14:33:14;18.30;;;8.90;;
67185;SDS011;54116;53.518;49.398;2023-05-16T14:35:46;22.50;;;9.98;;
67185;SDS011;54116;53.518;49.398;2023-05-16T14:38:19;15.90;;;9.90;;
67185;SDS011;54116;53.518;49.398;2023-05-16T14:40:50;21.80;;;10.18;;
67185;SDS011;54116;53.518;49.398;2023-05-16T14:43:22;26.30;;;11.77;;
67185;SDS011;54116;53.518;49.398;2023-05-16T14:45:53;23.02;;;10.60;;
67185;SDS011;54116;53.518;49.398;2023-05-16T14:48:24;20.30;;;10.80;;
67185;SDS011;54116;53.518;49.398;2023-05-16T14:51:14;23.95;;;10.82;;
67185;SDS011;54116;53.518;49.398;2023-05-16T14:53:46;20.27;;;11.40;;
67185;SDS011;54116;53.518;49.398;2023-05-16T14:56:17;20.80;;;11.40;;
67185;SDS011;54116;53.518;49.398;2023-05-16T14:58:49;24.80;;;12.50;;
67185;SDS011;54116;53.518;49.398;2023-05-16T15:04:29;22.95;;;13.27;;
67185;SDS011;54116;53.518;49.398;2023-05-16T15:07:02;24.52;;;14.23;;
67185;SDS011;54116;53.518;49.398;2023-05-16T15:12:23;22.13;;;11.57;;
67185;SDS011;54116;53.518;49.398;2023-05-16T15:15:13;23.83;;;12.07;;
67185;SDS011;54116;53.518;49.398;2023-05-16T15:20:16;24.05;;;12.18;;
67185;SDS011;54116;53.518;49.398;2023-05-16T15:22:48;22.45;;;11.70;;
67185;SDS011;54116;53.518;49.398;2023-05-16T15:25:19;28.00;;;12.40;;
67185;SDS011;54116;53.518;49.398;2023-05-16T15:27:50;23.75;;;11.98;;
67185;SDS011;54116;53.518;49.398;2023-05-16T15:30:40;26.70;;;12.73;;
67185;SDS011;54116;53.518;49.398;2023-05-16T15:33:12;25.95;;;13.32;;
67185;SDS011;54116;53.518;49.398;2023-05-16T15:35:45;27.27;;;12.35;;
67185;SDS011;54116;53.518;49.398;2023-05-16T15:38:16;23.23;;;13.00;;
67185;SDS011;54116;53.518;49.398;2023-05-16T15:40:47;28.30;;;13.82;;
67185;SDS011;54116;53.518;49.398;2023-05-16T15:43:19;27.00;;;13.27;;
67185;SDS011;54116;53.518;49.398;2023-05-16T15:45:50;25.20;;;12.75;;
67185;SDS011;54116;53.518;49.398;2023-05-16T15:48:22;25.45;;;12.20;;
67185;SDS011;54116;53.518;49.398;2023-05-16T15:50:53;26.17;;;13.98;;
67185;SDS011;54116;53.518;49.398;2023-05-16T15:53:24;28.33;;;13.48;;
67185;SDS011;54116;53.518;49.398;2023-05-16T15:56:14;29.48;;;13.73;;
67185;SDS011;54116;53.518;49.398;2023-05-16T16:01:17;31.95;;;13.13;;
67185;SDS011;54116;53.518;49.398;2023-05-16T16:03:48;29.33;;;13.57;;
67185;SDS011;54116;53.518;49.398;2023-05-16T16:06:20;32.45;;;13.55;;
67185;SDS011;54116;53.518;49.398;2023-05-16T16:09:10;28.00;;;13.48;;
67185;SDS011;54116;53.518;49.398;2023-05-16T16:11:46;31.13;;;14.05;;
67185;SDS011;54116;53.518;49.398;2023-05-16T16:14:17;29.83;;;14.20;;
67185;SDS011;54116;53.518;49.398;2023-05-16T16:17:26;36.97;;;13.68;;
67185;SDS011;54116;53.518;49.398;2023-05-16T16:19:57;34.80;;;14.38;;
67185;SDS011;54116;53.518;49.398;2023-05-16T16:22:28;39.10;;;14.43;;
67185;SDS011;54116;53.518;49.398;2023-05-16T16:25:00;35.92;;;14.75;;